sensor_id;sensor_type;location;lat;lon;timestamp;temperature;humidity
13744;DHT22;6943;52.368;9.966;2022-08-02T00:02:18;14.30;99.90
13744;DHT22;6943;52.368;9.966;2022-08-02T00:04:44;14.20;99.90
13744;DHT22;6943;52.368;9.966;2022-08-02T00:07:10;14.20;99.90
13744;DHT22;6943;52.368;9.966;2022-08-02T00:09:35;14.30;99.90
13744;DHT22;6943;52.368;9.966;2022-08-02T00:12:00;14.20;99.90
13744;DHT22;6943;52.368;9.966;2022-08-02T00:14:26;14.20;99.90
13744;DHT22;6943;52.368;9.966;2022-08-02T00:16:51;14.20;99.90
13744;DHT22;6943;52.368;9.966;2022-08-02T00:19:17;14.20;99.90
13744;DHT22;6943;52.368;9.966;2022-08-02T00:21:42;14.10;99.90
13744;DHT22;6943;52.368;9.966;2022-08-02T00:24:08;14.10;99.90
13744;DHT22;6943;52.368;9.966;2022-08-02T00:26:34;14.10;99.90
13744;DHT22;6943;52.368;9.966;2022-08-02T00:28:59;14.10;99.90
13744;DHT22;6943;52.368;9.966;2022-08-02T00:31:25;14.10;99.90
13744;DHT22;6943;52.368;9.966;2022-08-02T00:33:50;14.10;99.90
13744;DHT22;6943;52.368;9.966;2022-08-02T00:36:16;14.00;99.90
13744;DHT22;6943;52.368;9.966;2022-08-02T00:38:42;14.00;99.90
13744;DHT22;6943;52.368;9.966;2022-08-02T00:41:12;14.00;99.90
13744;DHT22;6943;52.368;9.966;2022-08-02T00:43:38;14.00;99.90
13744;DHT22;6943;52.368;9.966;2022-08-02T00:46:04;14.00;99.90
13744;DHT22;6943;52.368;9.966;2022-08-02T00:48:30;14.00;99.90
13744;DHT22;6943;52.368;9.966;2022-08-02T00:50:55;14.00;99.90
13744;DHT22;6943;52.368;9.966;2022-08-02T00:53:21;14.00;99.90
13744;DHT22;6943;52.368;9.966;2022-08-02T00:55:47;13.90;99.90
13744;DHT22;6943;52.368;9.966;2022-08-02T00:58:12;13.90;99.90
13744;DHT22;6943;52.368;9.966;2022-08-02T01:00:38;13.90;99.90
13744;DHT22;6943;52.368;9.966;2022-08-02T01:03:03;13.90;99.90
13744;DHT22;6943;52.368;9.966;2022-08-02T01:05:29;13.90;99.90
13744;DHT22;6943;52.368;9.966;2022-08-02T01:07:54;13.90;99.90
13744;DHT22;6943;52.368;9.966;2022-08-02T01:10:20;14.00;99.90
13744;DHT22;6943;52.368;9.966;2022-08-02T01:12:45;14.00;99.90
13744;DHT22;6943;52.368;9.966;2022-08-02T01:15:12;14.00;99.90
13744;DHT22;6943;52.368;9.966;2022-08-02T01:28:43;14.20;99.90
13744;DHT22;6943;52.368;9.966;2022-08-02T01:31:18;14.20;99.90
13744;DHT22;6943;52.368;9.966;2022-08-02T01:34:01;14.10;99.90
13744;DHT22;6943;52.368;9.966;2022-08-02T01:36:52;14.10;99.90
13744;DHT22;6943;52.368;9.966;2022-08-02T01:39:24;14.10;99.90
13744;DHT22;6943;52.368;9.966;2022-08-02T01:41:51;14.00;99.90
13744;DHT22;6943;52.368;9.966;2022-08-02T01:44:18;13.90;99.90
13744;DHT22;6943;52.368;9.966;2022-08-02T01:46:45;13.90;99.90
13744;DHT22;6943;52.368;9.966;2022-08-02T01:49:16;13.80;99.90
13744;DHT22;6943;52.368;9.966;2022-08-02T01:51:46;13.80;99.90
13744;DHT22;6943;52.368;9.966;2022-08-02T01:54:32;13.80;99.90
13744;DHT22;6943;52.368;9.966;2022-08-02T01:57:02;13.80;99.90
13744;DHT22;6943;52.368;9.966;2022-08-02T01:59:29;13.70;99.90
13744;DHT22;6943;52.368;9.966;2022-08-02T02:01:57;13.70;99.90
13744;DHT22;6943;52.368;9.966;2022-08-02T02:04:26;13.70;99.90
13744;DHT22;6943;52.368;9.966;2022-08-02T02:06:52;13.60;99.90
13744;DHT22;6943;52.368;9.966;2022-08-02T02:09:21;13.50;99.90
13744;DHT22;6943;52.368;9.966;2022-08-02T02:11:50;13.60;99.90
13744;DHT22;6943;52.368;9.966;2022-08-02T02:14:16;13.50;99.90
13744;DHT22;6943;52.368;9.966;2022-08-02T02:16:45;13.50;99.90
13744;DHT22;6943;52.368;9.966;2022-08-02T02:19:15;13.50;99.90
13744;DHT22;6943;52.368;9.966;2022-08-02T02:21:42;13.40;99.90
13744;DHT22;6943;52.368;9.966;2022-08-02T02:24:08;13.40;99.90
13744;DHT22;6943;52.368;9.966;2022-08-02T02:26:35;13.30;99.90
13744;DHT22;6943;52.368;9.966;2022-08-02T02:29:03;13.30;99.90
13744;DHT22;6943;52.368;9.966;2022-08-02T02:31:33;13.30;99.90
13744;DHT22;6943;52.368;9.966;2022-08-02T02:34:05;13.30;99.90
13744;DHT22;6943;52.368;9.966;2022-08-02T02:36:33;13.20;99.90
13744;DHT22;6943;52.368;9.966;2022-08-02T02:39:02;13.20;99.90
13744;DHT22;6943;52.368;9.966;2022-08-02T02:41:28;13.20;99.90
13744;DHT22;6943;52.368;9.966;2022-08-02T02:43:55;13.10;99.90
13744;DHT22;6943;52.368;9.966;2022-08-02T02:46:22;13.10;99.90
13744;DHT22;6943;52.368;9.966;2022-08-02T02:48:50;13.10;99.90
13744;DHT22;6943;52.368;9.966;2022-08-02T02:51:16;13.10;99.90
13744;DHT22;6943;52.368;9.966;2022-08-02T02:53:43;13.00;99.90
13744;DHT22;6943;52.368;9.966;2022-08-02T02:56:10;13.00;99.90
13744;DHT22;6943;52.368;9.966;2022-08-02T02:58:37;12.90;99.90
13744;DHT22;6943;52.368;9.966;2022-08-02T03:01:03;13.00;99.90
13744;DHT22;6943;52.368;9.966;2022-08-02T03:03:48;12.90;99.90
13744;DHT22;6943;52.368;9.966;2022-08-02T03:06:14;12.90;99.90
13744;DHT22;6943;52.368;9.966;2022-08-02T03:08:39;12.90;99.90
13744;DHT22;6943;52.368;9.966;2022-08-02T03:11:07;12.90;99.90
13744;DHT22;6943;52.368;9.966;2022-08-02T03:13:34;12.90;99.90
13744;DHT22;6943;52.368;9.966;2022-08-02T03:16:00;12.90;99.90
13744;DHT22;6943;52.368;9.966;2022-08-02T03:18:37;12.80;99.90
13744;DHT22;6943;52.368;9.966;2022-08-02T03:21:05;12.80;99.90
13744;DHT22;6943;52.368;9.966;2022-08-02T03:23:32;12.80;99.90
13744;DHT22;6943;52.368;9.966;2022-08-02T03:26:07;12.80;99.90
13744;DHT22;6943;52.368;9.966;2022-08-02T03:28:33;12.80;99.90
13744;DHT22;6943;52.368;9.966;2022-08-02T03:30:59;12.90;99.90
13744;DHT22;6943;52.368;9.966;2022-08-02T03:33:25;12.80;99.90
13744;DHT22;6943;52.368;9.966;2022-08-02T03:35:55;12.70;99.90
13744;DHT22;6943;52.368;9.966;2022-08-02T03:38:24;12.60;99.90
13744;DHT22;6943;52.368;9.966;2022-08-02T03:40:51;12.40;99.90
13744;DHT22;6943;52.368;9.966;2022-08-02T03:43:18;12.40;99.90
13744;DHT22;6943;52.368;9.966;2022-08-02T03:45:46;12.50;99.90
13744;DHT22;6943;52.368;9.966;2022-08-02T03:48:15;12.40;99.90
13744;DHT22;6943;52.368;9.966;2022-08-02T03:50:42;12.40;99.90
13744;DHT22;6943;52.368;9.966;2022-08-02T03:53:10;12.40;99.90
13744;DHT22;6943;52.368;9.966;2022-08-02T03:55:38;12.60;99.90
13744;DHT22;6943;52.368;9.966;2022-08-02T03:58:04;12.40;99.90
13744;DHT22;6943;52.368;9.966;2022-08-02T04:00:30;12.50;99.90
13744;DHT22;6943;52.368;9.966;2022-08-02T04:02:56;12.40;99.90
13744;DHT22;6943;52.368;9.966;2022-08-02T04:05:22;12.60;99.90
13744;DHT22;6943;52.368;9.966;2022-08-02T04:07:47;12.80;99.90
13744;DHT22;6943;52.368;9.966;2022-08-02T04:10:14;12.90;99.90
13744;DHT22;6943;52.368;9.966;2022-08-02T04:12:39;13.00;99.90
13744;DHT22;6943;52.368;9.966;2022-08-02T04:15:06;13.20;99.90
13744;DHT22;6943;52.368;9.966;2022-08-02T04:17:35;13.80;99.90
13744;DHT22;6943;52.368;9.966;2022-08-02T04:20:13;14.30;99.90
13744;DHT22;6943;52.368;9.966;2022-08-02T04:22:46;14.60;99.90
13744;DHT22;6943;52.368;9.966;2022-08-02T04:25:15;14.90;1.00
13744;DHT22;6943;52.368;9.966;2022-08-02T04:27:41;15.10;1.00
13744;DHT22;6943;52.368;9.966;2022-08-02T04:30:07;15.00;1.00
13744;DHT22;6943;52.368;9.966;2022-08-02T04:32:34;14.70;1.00
13744;DHT22;6943;52.368;9.966;2022-08-02T04:35:00;14.30;14.50
13744;DHT22;6943;52.368;9.966;2022-08-02T04:37:26;14.00;99.90
13744;DHT22;6943;52.368;9.966;2022-08-02T04:39:51;13.90;99.90
13744;DHT22;6943;52.368;9.966;2022-08-02T04:42:24;13.90;99.90
13744;DHT22;6943;52.368;9.966;2022-08-02T04:44:51;13.70;99.90
13744;DHT22;6943;52.368;9.966;2022-08-02T04:47:20;13.60;99.90
13744;DHT22;6943;52.368;9.966;2022-08-02T04:49:46;14.10;99.90
13744;DHT22;6943;52.368;9.966;2022-08-02T04:52:12;14.50;99.90
13744;DHT22;6943;52.368;9.966;2022-08-02T04:54:37;14.90;1.00
13744;DHT22;6943;52.368;9.966;2022-08-02T04:57:03;15.00;1.00
13744;DHT22;6943;52.368;9.966;2022-08-02T04:59:49;14.50;1.00
13744;DHT22;6943;52.368;9.966;2022-08-02T05:02:14;14.30;95.70
13744;DHT22;6943;52.368;9.966;2022-08-02T05:04:40;14.60;99.90
13744;DHT22;6943;52.368;9.966;2022-08-02T05:07:05;15.30;1.00
13744;DHT22;6943;52.368;9.966;2022-08-02T05:09:31;14.90;1.00
13744;DHT22;6943;52.368;9.966;2022-08-02T05:11:56;14.50;1.00
13744;DHT22;6943;52.368;9.966;2022-08-02T05:14:22;14.30;1.00
13744;DHT22;6943;52.368;9.966;2022-08-02T05:16:47;14.30;87.10
13744;DHT22;6943;52.368;9.966;2022-08-02T05:19:13;15.00;1.00
13744;DHT22;6943;52.368;9.966;2022-08-02T05:21:38;16.40;1.00
13744;DHT22;6943;52.368;9.966;2022-08-02T05:24:04;17.70;99.90
13744;DHT22;6943;52.368;9.966;2022-08-02T05:26:30;17.80;1.00
13744;DHT22;6943;52.368;9.966;2022-08-02T05:28:55;18.80;99.90
13744;DHT22;6943;52.368;9.966;2022-08-02T05:31:21;19.00;1.00
13744;DHT22;6943;52.368;9.966;2022-08-02T05:33:46;21.40;99.90
13744;DHT22;6943;52.368;9.966;2022-08-02T05:36:12;23.30;1.00
13744;DHT22;6943;52.368;9.966;2022-08-02T05:38:38;25.00;1.00
13744;DHT22;6943;52.368;9.966;2022-08-02T05:41:04;25.30;1.00
13744;DHT22;6943;52.368;9.966;2022-08-02T05:43:29;25.70;1.00
13744;DHT22;6943;52.368;9.966;2022-08-02T05:45:55;25.20;1.00
13744;DHT22;6943;52.368;9.966;2022-08-02T05:48:21;25.20;1.00
13744;DHT22;6943;52.368;9.966;2022-08-02T05:50:48;25.60;1.00
13744;DHT22;6943;52.368;9.966;2022-08-02T05:53:27;26.60;1.00
13744;DHT22;6943;52.368;9.966;2022-08-02T05:56:08;26.20;1.00
13744;DHT22;6943;52.368;9.966;2022-08-02T05:58:48;26.00;1.00
13744;DHT22;6943;52.368;9.966;2022-08-02T06:01:21;26.80;1.00
13744;DHT22;6943;52.368;9.966;2022-08-02T06:03:52;27.30;1.00
13744;DHT22;6943;52.368;9.966;2022-08-02T06:06:21;26.80;1.00
13744;DHT22;6943;52.368;9.966;2022-08-02T06:08:50;26.30;1.00
13744;DHT22;6943;52.368;9.966;2022-08-02T06:11:22;25.50;1.00
13744;DHT22;6943;52.368;9.966;2022-08-02T06:13:48;27.10;1.00
13744;DHT22;6943;52.368;9.966;2022-08-02T06:16:15;28.40;1.00
13744;DHT22;6943;52.368;9.966;2022-08-02T06:18:42;29.10;1.00
13744;DHT22;6943;52.368;9.966;2022-08-02T06:21:08;28.20;1.00
13744;DHT22;6943;52.368;9.966;2022-08-02T06:23:39;29.40;1.00
13744;DHT22;6943;52.368;9.966;2022-08-02T06:26:05;29.70;1.00
13744;DHT22;6943;52.368;9.966;2022-08-02T06:28:32;29.70;1.00
13744;DHT22;6943;52.368;9.966;2022-08-02T06:31:02;27.50;1.00
13744;DHT22;6943;52.368;9.966;2022-08-02T06:33:27;28.20;1.00
13744;DHT22;6943;52.368;9.966;2022-08-02T06:36:02;28.10;1.00
13744;DHT22;6943;52.368;9.966;2022-08-02T06:38:32;27.00;1.00
13744;DHT22;6943;52.368;9.966;2022-08-02T06:41:07;26.40;1.00
13744;DHT22;6943;52.368;9.966;2022-08-02T06:46:23;29.40;1.00
13744;DHT22;6943;52.368;9.966;2022-08-02T06:48:48;29.90;1.00
13744;DHT22;6943;52.368;9.966;2022-08-02T06:51:14;30.50;1.00
13744;DHT22;6943;52.368;9.966;2022-08-02T06:53:39;30.40;1.00
13744;DHT22;6943;52.368;9.966;2022-08-02T06:56:05;31.10;1.00
13744;DHT22;6943;52.368;9.966;2022-08-02T06:58:31;33.40;1.00
13744;DHT22;6943;52.368;9.966;2022-08-02T07:00:56;32.90;1.00
13744;DHT22;6943;52.368;9.966;2022-08-02T07:03:22;33.20;1.00
13744;DHT22;6943;52.368;9.966;2022-08-02T07:05:50;32.40;1.00
13744;DHT22;6943;52.368;9.966;2022-08-02T07:08:17;33.20;1.00
13744;DHT22;6943;52.368;9.966;2022-08-02T07:10:43;34.80;1.00
13744;DHT22;6943;52.368;9.966;2022-08-02T07:13:08;34.20;1.00
13744;DHT22;6943;52.368;9.966;2022-08-02T07:15:36;33.40;1.00
13744;DHT22;6943;52.368;9.966;2022-08-02T07:18:02;32.30;1.00
13744;DHT22;6943;52.368;9.966;2022-08-02T07:20:27;32.50;1.00
13744;DHT22;6943;52.368;9.966;2022-08-02T07:22:53;32.90;1.00
13744;DHT22;6943;52.368;9.966;2022-08-02T07:25:19;33.30;1.00
13744;DHT22;6943;52.368;9.966;2022-08-02T07:27:44;34.40;1.00
13744;DHT22;6943;52.368;9.966;2022-08-02T07:30:10;36.10;1.00
13744;DHT22;6943;52.368;9.966;2022-08-02T07:32:36;34.20;1.00
13744;DHT22;6943;52.368;9.966;2022-08-02T07:35:02;33.40;1.00
13744;DHT22;6943;52.368;9.966;2022-08-02T07:37:30;34.80;1.00
13744;DHT22;6943;52.368;9.966;2022-08-02T07:39:56;32.60;1.00
13744;DHT22;6943;52.368;9.966;2022-08-02T07:42:21;31.50;1.00
13744;DHT22;6943;52.368;9.966;2022-08-02T07:44:47;32.00;1.00
13744;DHT22;6943;52.368;9.966;2022-08-02T07:47:12;34.30;1.00
13744;DHT22;6943;52.368;9.966;2022-08-02T07:49:38;37.30;1.00
13744;DHT22;6943;52.368;9.966;2022-08-02T07:52:03;37.40;1.00
13744;DHT22;6943;52.368;9.966;2022-08-02T07:54:29;37.40;1.00
13744;DHT22;6943;52.368;9.966;2022-08-02T07:56:54;38.40;1.00
13744;DHT22;6943;52.368;9.966;2022-08-02T07:59:21;40.50;1.00
13744;DHT22;6943;52.368;9.966;2022-08-02T08:01:47;40.50;1.00
13744;DHT22;6943;52.368;9.966;2022-08-02T08:04:14;39.10;1.00
13744;DHT22;6943;52.368;9.966;2022-08-02T08:06:39;39.70;1.00
13744;DHT22;6943;52.368;9.966;2022-08-02T08:09:05;41.30;1.00
13744;DHT22;6943;52.368;9.966;2022-08-02T08:11:33;42.50;1.00
13744;DHT22;6943;52.368;9.966;2022-08-02T08:13:58;43.20;1.00
13744;DHT22;6943;52.368;9.966;2022-08-02T08:16:24;43.30;1.00
13744;DHT22;6943;52.368;9.966;2022-08-02T08:18:51;43.30;1.00
13744;DHT22;6943;52.368;9.966;2022-08-02T08:21:16;43.60;1.00
13744;DHT22;6943;52.368;9.966;2022-08-02T08:23:42;43.30;1.00
13744;DHT22;6943;52.368;9.966;2022-08-02T08:26:07;42.50;1.00
13744;DHT22;6943;52.368;9.966;2022-08-02T08:28:33;42.10;1.00
13744;DHT22;6943;52.368;9.966;2022-08-02T08:30:59;41.60;1.00
13744;DHT22;6943;52.368;9.966;2022-08-02T08:33:25;42.10;1.00
13744;DHT22;6943;52.368;9.966;2022-08-02T08:35:51;42.30;1.00
13744;DHT22;6943;52.368;9.966;2022-08-02T08:38:16;41.90;1.00
13744;DHT22;6943;52.368;9.966;2022-08-02T08:40:42;41.40;1.00
13744;DHT22;6943;52.368;9.966;2022-08-02T08:43:11;40.90;1.00
13744;DHT22;6943;52.368;9.966;2022-08-02T08:45:38;40.20;1.00
13744;DHT22;6943;52.368;9.966;2022-08-02T08:48:09;40.40;1.00
13744;DHT22;6943;52.368;9.966;2022-08-02T08:50:44;41.00;1.00
13744;DHT22;6943;52.368;9.966;2022-08-02T08:53:13;40.80;1.00
13744;DHT22;6943;52.368;9.966;2022-08-02T08:55:39;40.50;1.00
13744;DHT22;6943;52.368;9.966;2022-08-02T08:58:04;40.80;1.00
13744;DHT22;6943;52.368;9.966;2022-08-02T09:00:32;40.00;1.00
13744;DHT22;6943;52.368;9.966;2022-08-02T09:03:02;38.90;1.00
13744;DHT22;6943;52.368;9.966;2022-08-02T09:05:27;38.20;1.00
13744;DHT22;6943;52.368;9.966;2022-08-02T09:07:53;38.00;1.00
13744;DHT22;6943;52.368;9.966;2022-08-02T09:10:54;38.30;1.00
13744;DHT22;6943;52.368;9.966;2022-08-02T09:13:21;38.10;1.00
13744;DHT22;6943;52.368;9.966;2022-08-02T09:18:20;37.10;1.00
13744;DHT22;6943;52.368;9.966;2022-08-02T09:20:56;36.60;1.00
13744;DHT22;6943;52.368;9.966;2022-08-02T09:23:23;35.60;1.00
13744;DHT22;6943;52.368;9.966;2022-08-02T09:25:57;33.90;1.00
13744;DHT22;6943;52.368;9.966;2022-08-02T09:28:30;32.30;1.00
13744;DHT22;6943;52.368;9.966;2022-08-02T09:31:10;31.20;1.00
13744;DHT22;6943;52.368;9.966;2022-08-02T09:33:38;30.60;1.00
13744;DHT22;6943;52.368;9.966;2022-08-02T09:36:06;29.80;1.00
13744;DHT22;6943;52.368;9.966;2022-08-02T09:38:33;29.40;1.00
13744;DHT22;6943;52.368;9.966;2022-08-02T09:41:00;29.00;1.00
13744;DHT22;6943;52.368;9.966;2022-08-02T09:43:40;28.90;1.00
13744;DHT22;6943;52.368;9.966;2022-08-02T09:48:54;28.40;1.00
13744;DHT22;6943;52.368;9.966;2022-08-02T09:51:24;28.10;1.00
13744;DHT22;6943;52.368;9.966;2022-08-02T09:53:55;27.60;1.00
13744;DHT22;6943;52.368;9.966;2022-08-02T09:56:24;27.60;1.00
13744;DHT22;6943;52.368;9.966;2022-08-02T09:58:51;27.40;1.00
13744;DHT22;6943;52.368;9.966;2022-08-02T10:01:20;27.50;1.00
13744;DHT22;6943;52.368;9.966;2022-08-02T10:03:57;27.50;1.00
13744;DHT22;6943;52.368;9.966;2022-08-02T10:06:23;27.40;1.00
13744;DHT22;6943;52.368;9.966;2022-08-02T10:08:50;27.50;1.00
13744;DHT22;6943;52.368;9.966;2022-08-02T10:11:21;27.40;1.00
13744;DHT22;6943;52.368;9.966;2022-08-02T10:13:47;27.40;1.00
13744;DHT22;6943;52.368;9.966;2022-08-02T10:16:15;27.50;1.00
13744;DHT22;6943;52.368;9.966;2022-08-02T10:18:41;27.40;1.00
13744;DHT22;6943;52.368;9.966;2022-08-02T10:21:13;27.30;1.00
13744;DHT22;6943;52.368;9.966;2022-08-02T10:23:42;27.10;1.00
13744;DHT22;6943;52.368;9.966;2022-08-02T10:26:08;26.70;1.00
13744;DHT22;6943;52.368;9.966;2022-08-02T10:28:33;26.70;1.00
13744;DHT22;6943;52.368;9.966;2022-08-02T10:31:02;26.80;1.00
13744;DHT22;6943;52.368;9.966;2022-08-02T10:33:31;26.70;1.00
13744;DHT22;6943;52.368;9.966;2022-08-02T10:35:59;26.60;1.00
13744;DHT22;6943;52.368;9.966;2022-08-02T10:38:26;26.50;1.00
13744;DHT22;6943;52.368;9.966;2022-08-02T10:40:53;26.50;1.00
13744;DHT22;6943;52.368;9.966;2022-08-02T10:46:29;26.40;1.00
13744;DHT22;6943;52.368;9.966;2022-08-02T10:56:57;26.10;1.00
13744;DHT22;6943;52.368;9.966;2022-08-02T10:59:24;26.20;1.00
13744;DHT22;6943;52.368;9.966;2022-08-02T11:01:51;26.20;1.00
13744;DHT22;6943;52.368;9.966;2022-08-02T11:04:17;26.00;1.00
13744;DHT22;6943;52.368;9.966;2022-08-02T11:09:34;26.10;1.00
13744;DHT22;6943;52.368;9.966;2022-08-02T11:12:10;26.10;1.00
13744;DHT22;6943;52.368;9.966;2022-08-02T11:14:38;26.20;1.00
13744;DHT22;6943;52.368;9.966;2022-08-02T11:17:06;26.20;1.00
13744;DHT22;6943;52.368;9.966;2022-08-02T11:19:32;26.20;1.00
13744;DHT22;6943;52.368;9.966;2022-08-02T11:22:03;26.20;1.00
13744;DHT22;6943;52.368;9.966;2022-08-02T11:24:33;26.20;1.00
13744;DHT22;6943;52.368;9.966;2022-08-02T11:27:01;26.40;1.00
13744;DHT22;6943;52.368;9.966;2022-08-02T11:31:59;26.60;1.00
13744;DHT22;6943;52.368;9.966;2022-08-02T11:34:25;26.60;1.00
13744;DHT22;6943;52.368;9.966;2022-08-02T11:36:51;26.70;1.00
13744;DHT22;6943;52.368;9.966;2022-08-02T11:39:19;26.90;1.00
13744;DHT22;6943;52.368;9.966;2022-08-02T11:41:52;27.00;1.00
13744;DHT22;6943;52.368;9.966;2022-08-02T11:44:19;27.00;1.00
13744;DHT22;6943;52.368;9.966;2022-08-02T11:46:52;27.20;1.00
13744;DHT22;6943;52.368;9.966;2022-08-02T11:49:17;27.30;1.00
13744;DHT22;6943;52.368;9.966;2022-08-02T11:54:31;27.50;1.00
13744;DHT22;6943;52.368;9.966;2022-08-02T11:57:19;27.50;1.00
13744;DHT22;6943;52.368;9.966;2022-08-02T11:59:47;27.60;1.00
13744;DHT22;6943;52.368;9.966;2022-08-02T12:02:14;27.60;1.00
13744;DHT22;6943;52.368;9.966;2022-08-02T12:04:40;27.70;1.00
13744;DHT22;6943;52.368;9.966;2022-08-02T12:07:07;27.70;1.00
13744;DHT22;6943;52.368;9.966;2022-08-02T12:09:34;27.70;1.00
13744;DHT22;6943;52.368;9.966;2022-08-02T12:12:01;27.80;1.00
13744;DHT22;6943;52.368;9.966;2022-08-02T12:14:28;27.90;1.00
13744;DHT22;6943;52.368;9.966;2022-08-02T12:16:54;27.90;1.00
13744;DHT22;6943;52.368;9.966;2022-08-02T12:19:39;28.10;1.00
13744;DHT22;6943;52.368;9.966;2022-08-02T12:24:32;28.50;1.00
13744;DHT22;6943;52.368;9.966;2022-08-02T12:26:58;28.80;1.00
13744;DHT22;6943;52.368;9.966;2022-08-02T12:29:37;28.90;1.00
13744;DHT22;6943;52.368;9.966;2022-08-02T12:32:05;29.10;1.00
13744;DHT22;6943;52.368;9.966;2022-08-02T12:34:32;29.00;1.00
13744;DHT22;6943;52.368;9.966;2022-08-02T12:37:07;29.00;1.00
13744;DHT22;6943;52.368;9.966;2022-08-02T12:39:43;29.00;1.00
13744;DHT22;6943;52.368;9.966;2022-08-02T12:42:12;28.90;1.00
13744;DHT22;6943;52.368;9.966;2022-08-02T12:44:52;28.90;1.00
13744;DHT22;6943;52.368;9.966;2022-08-02T12:47:17;29.10;1.00
13744;DHT22;6943;52.368;9.966;2022-08-02T12:49:43;29.10;1.00
13744;DHT22;6943;52.368;9.966;2022-08-02T12:52:22;29.20;1.00
13744;DHT22;6943;52.368;9.966;2022-08-02T12:54:48;29.30;1.00
13744;DHT22;6943;52.368;9.966;2022-08-02T12:57:15;29.40;1.00
13744;DHT22;6943;52.368;9.966;2022-08-02T12:59:47;29.50;1.00
13744;DHT22;6943;52.368;9.966;2022-08-02T13:02:13;29.40;1.00
13744;DHT22;6943;52.368;9.966;2022-08-02T13:04:41;29.40;1.00
13744;DHT22;6943;52.368;9.966;2022-08-02T13:07:07;29.40;1.00
13744;DHT22;6943;52.368;9.966;2022-08-02T13:09:37;29.50;1.00
13744;DHT22;6943;52.368;9.966;2022-08-02T13:12:05;29.60;1.00
13744;DHT22;6943;52.368;9.966;2022-08-02T13:14:31;29.70;1.00
13744;DHT22;6943;52.368;9.966;2022-08-02T13:16:57;29.90;1.00
13744;DHT22;6943;52.368;9.966;2022-08-02T13:19:22;29.90;1.00
13744;DHT22;6943;52.368;9.966;2022-08-02T13:21:48;29.60;1.00
13744;DHT22;6943;52.368;9.966;2022-08-02T13:24:14;29.40;1.00
13744;DHT22;6943;52.368;9.966;2022-08-02T13:26:44;29.50;1.00
13744;DHT22;6943;52.368;9.966;2022-08-02T13:29:10;29.40;1.00
13744;DHT22;6943;52.368;9.966;2022-08-02T13:31:37;29.50;1.00
13744;DHT22;6943;52.368;9.966;2022-08-02T13:34:07;29.70;1.00
13744;DHT22;6943;52.368;9.966;2022-08-02T13:36:34;29.70;1.00
13744;DHT22;6943;52.368;9.966;2022-08-02T13:39:01;29.50;1.00
13744;DHT22;6943;52.368;9.966;2022-08-02T13:41:29;29.50;1.00
13744;DHT22;6943;52.368;9.966;2022-08-02T13:43:54;29.30;1.00
13744;DHT22;6943;52.368;9.966;2022-08-02T13:46:20;29.20;1.00
13744;DHT22;6943;52.368;9.966;2022-08-02T13:48:45;29.20;1.00
13744;DHT22;6943;52.368;9.966;2022-08-02T13:51:11;29.20;1.00
13744;DHT22;6943;52.368;9.966;2022-08-02T13:53:38;29.20;1.00
13744;DHT22;6943;52.368;9.966;2022-08-02T13:56:03;29.20;1.00
13744;DHT22;6943;52.368;9.966;2022-08-02T13:58:29;29.10;1.00
13744;DHT22;6943;52.368;9.966;2022-08-02T14:00:54;29.00;1.00
13744;DHT22;6943;52.368;9.966;2022-08-02T14:03:20;29.10;1.00
13744;DHT22;6943;52.368;9.966;2022-08-02T14:05:45;29.40;1.00
13744;DHT22;6943;52.368;9.966;2022-08-02T14:08:11;29.60;1.00
13744;DHT22;6943;52.368;9.966;2022-08-02T14:10:37;29.80;1.00
13744;DHT22;6943;52.368;9.966;2022-08-02T14:13:03;30.10;1.00
13744;DHT22;6943;52.368;9.966;2022-08-02T14:15:29;30.00;1.00
13744;DHT22;6943;52.368;9.966;2022-08-02T14:17:54;29.90;1.00
13744;DHT22;6943;52.368;9.966;2022-08-02T14:20:20;29.80;1.00
13744;DHT22;6943;52.368;9.966;2022-08-02T14:22:45;29.80;1.00
13744;DHT22;6943;52.368;9.966;2022-08-02T14:25:11;29.60;1.00
13744;DHT22;6943;52.368;9.966;2022-08-02T14:27:36;29.70;1.00
13744;DHT22;6943;52.368;9.966;2022-08-02T14:30:02;29.70;1.00
13744;DHT22;6943;52.368;9.966;2022-08-02T14:32:28;29.60;1.00
13744;DHT22;6943;52.368;9.966;2022-08-02T14:34:53;29.70;1.00
13744;DHT22;6943;52.368;9.966;2022-08-02T14:37:19;29.70;1.00
13744;DHT22;6943;52.368;9.966;2022-08-02T14:39:44;29.80;1.00
13744;DHT22;6943;52.368;9.966;2022-08-02T14:42:10;30.00;1.00
13744;DHT22;6943;52.368;9.966;2022-08-02T14:44:36;30.30;1.00
13744;DHT22;6943;52.368;9.966;2022-08-02T14:47:02;30.40;1.00
13744;DHT22;6943;52.368;9.966;2022-08-02T14:49:30;30.30;1.00
13744;DHT22;6943;52.368;9.966;2022-08-02T14:51:56;30.40;1.00
13744;DHT22;6943;52.368;9.966;2022-08-02T14:54:24;30.30;1.00
13744;DHT22;6943;52.368;9.966;2022-08-02T14:56:52;30.30;1.00
13744;DHT22;6943;52.368;9.966;2022-08-02T14:59:17;30.30;1.00
13744;DHT22;6943;52.368;9.966;2022-08-02T15:01:43;30.40;1.00
13744;DHT22;6943;52.368;9.966;2022-08-02T15:04:08;30.40;1.00
13744;DHT22;6943;52.368;9.966;2022-08-02T15:06:34;30.60;1.00
13744;DHT22;6943;52.368;9.966;2022-08-02T15:08:59;30.50;1.00
13744;DHT22;6943;52.368;9.966;2022-08-02T15:11:25;30.40;1.00
13744;DHT22;6943;52.368;9.966;2022-08-02T15:13:53;30.40;1.00
13744;DHT22;6943;52.368;9.966;2022-08-02T15:16:19;30.40;1.00
13744;DHT22;6943;52.368;9.966;2022-08-02T15:18:44;30.30;1.00
13744;DHT22;6943;52.368;9.966;2022-08-02T15:21:13;30.20;1.00
13744;DHT22;6943;52.368;9.966;2022-08-02T15:23:38;30.00;1.00
13744;DHT22;6943;52.368;9.966;2022-08-02T15:26:04;29.90;1.00
13744;DHT22;6943;52.368;9.966;2022-08-02T15:28:31;29.70;1.00
13744;DHT22;6943;52.368;9.966;2022-08-02T15:30:57;29.50;1.00
13744;DHT22;6943;52.368;9.966;2022-08-02T15:33:23;29.40;1.00
13744;DHT22;6943;52.368;9.966;2022-08-02T15:35:49;29.30;1.00
13744;DHT22;6943;52.368;9.966;2022-08-02T15:38:14;29.40;1.00
13744;DHT22;6943;52.368;9.966;2022-08-02T15:40:41;29.30;1.00
13744;DHT22;6943;52.368;9.966;2022-08-02T15:43:08;29.20;1.00
13744;DHT22;6943;52.368;9.966;2022-08-02T15:45:34;29.20;1.00
13744;DHT22;6943;52.368;9.966;2022-08-02T15:47:59;29.00;1.00
13744;DHT22;6943;52.368;9.966;2022-08-02T15:50:25;28.90;1.00
13744;DHT22;6943;52.368;9.966;2022-08-02T15:52:51;28.90;1.00
13744;DHT22;6943;52.368;9.966;2022-08-02T15:55:16;28.90;1.00
13744;DHT22;6943;52.368;9.966;2022-08-02T15:57:42;28.90;1.00
13744;DHT22;6943;52.368;9.966;2022-08-02T16:00:08;28.80;1.00
13744;DHT22;6943;52.368;9.966;2022-08-02T16:02:34;28.70;1.00
13744;DHT22;6943;52.368;9.966;2022-08-02T16:05:00;28.50;1.00
13744;DHT22;6943;52.368;9.966;2022-08-02T16:07:25;28.60;1.00
13744;DHT22;6943;52.368;9.966;2022-08-02T16:09:51;28.60;1.00
13744;DHT22;6943;52.368;9.966;2022-08-02T16:12:16;28.60;1.00
13744;DHT22;6943;52.368;9.966;2022-08-02T16:14:42;28.60;1.00
13744;DHT22;6943;52.368;9.966;2022-08-02T16:17:07;28.60;1.00
13744;DHT22;6943;52.368;9.966;2022-08-02T16:19:33;28.60;1.00
13744;DHT22;6943;52.368;9.966;2022-08-02T16:21:59;28.50;1.00
13744;DHT22;6943;52.368;9.966;2022-08-02T16:24:24;28.40;1.00
13744;DHT22;6943;52.368;9.966;2022-08-02T16:26:51;28.40;1.00
13744;DHT22;6943;52.368;9.966;2022-08-02T16:29:17;28.40;1.00
13744;DHT22;6943;52.368;9.966;2022-08-02T16:31:44;28.40;1.00
13744;DHT22;6943;52.368;9.966;2022-08-02T16:34:10;28.40;1.00
13744;DHT22;6943;52.368;9.966;2022-08-02T16:36:35;28.40;1.00
13744;DHT22;6943;52.368;9.966;2022-08-02T16:39:01;28.40;1.00
13744;DHT22;6943;52.368;9.966;2022-08-02T16:41:26;28.30;1.00